sensor_id;sensor_type;location;lat;lon;timestamp;P1;durP1;ratioP1;P2;durP2;ratioP2
14883;SDS011;7534;50.762;7.000;2023-05-07T00:01:17;11.90;;;10.57;;
14883;SDS011;7534;50.762;7.000;2023-05-07T00:03:43;14.50;;;11.80;;
14883;SDS011;7534;50.762;7.000;2023-05-07T00:06:09;14.13;;;12.27;;
14883;SDS011;7534;50.762;7.000;2023-05-07T00:08:37;15.43;;;11.83;;
14883;SDS011;7534;50.762;7.000;2023-05-07T00:11:03;16.50;;;13.53;;
14883;SDS011;7534;50.762;7.000;2023-05-07T00:13:29;19.37;;;15.67;;
14883;SDS011;7534;50.762;7.000;2023-05-07T00:16:00;27.33;;;20.63;;
14883;SDS011;7534;50.762;7.000;2023-05-07T00:18:27;29.13;;;23.00;;
14883;SDS011;7534;50.762;7.000;2023-05-07T00:20:53;31.90;;;23.83;;
14883;SDS011;7534;50.762;7.000;2023-05-07T00:23:18;34.27;;;22.87;;
14883;SDS011;7534;50.762;7.000;2023-05-07T00:25:44;27.03;;;21.40;;
14883;SDS011;7534;50.762;7.000;2023-05-07T00:28:10;29.63;;;21.07;;
14883;SDS011;7534;50.762;7.000;2023-05-07T00:30:35;25.60;;;20.37;;
14883;SDS011;7534;50.762;7.000;2023-05-07T00:33:01;25.70;;;20.97;;
14883;SDS011;7534;50.762;7.000;2023-05-07T00:35:28;30.87;;;21.87;;
14883;SDS011;7534;50.762;7.000;2023-05-07T00:37:54;35.40;;;25.03;;
14883;SDS011;7534;50.762;7.000;2023-05-07T00:40:21;38.23;;;26.90;;
14883;SDS011;7534;50.762;7.000;2023-05-07T00:42:47;34.77;;;25.70;;
14883;SDS011;7534;50.762;7.000;2023-05-07T00:45:14;34.70;;;25.10;;
14883;SDS011;7534;50.762;7.000;2023-05-07T00:47:40;34.83;;;23.53;;
14883;SDS011;7534;50.762;7.000;2023-05-07T00:50:07;29.20;;;22.30;;
14883;SDS011;7534;50.762;7.000;2023-05-07T00:52:35;28.50;;;21.60;;
14883;SDS011;7534;50.762;7.000;2023-05-07T00:55:04;28.97;;;20.87;;
14883;SDS011;7534;50.762;7.000;2023-05-07T00:57:36;33.77;;;24.40;;
14883;SDS011;7534;50.762;7.000;2023-05-07T01:02:43;29.57;;;23.00;;
14883;SDS011;7534;50.762;7.000;2023-05-07T01:05:10;27.97;;;21.73;;
14883;SDS011;7534;50.762;7.000;2023-05-07T01:07:40;31.37;;;21.50;;
14883;SDS011;7534;50.762;7.000;2023-05-07T01:10:08;27.10;;;19.67;;
14883;SDS011;7534;50.762;7.000;2023-05-07T01:12:37;30.57;;;22.83;;
14883;SDS011;7534;50.762;7.000;2023-05-07T01:15:05;28.20;;;22.33;;
14883;SDS011;7534;50.762;7.000;2023-05-07T01:17:33;33.83;;;23.97;;
14883;SDS011;7534;50.762;7.000;2023-05-07T01:20:05;30.80;;;22.43;;
14883;SDS011;7534;50.762;7.000;2023-05-07T01:22:36;26.37;;;20.63;;
14883;SDS011;7534;50.762;7.000;2023-05-07T01:25:03;24.83;;;18.53;;
14883;SDS011;7534;50.762;7.000;2023-05-07T01:27:31;26.10;;;20.13;;
14883;SDS011;7534;50.762;7.000;2023-05-07T01:29:58;29.30;;;21.50;;
14883;SDS011;7534;50.762;7.000;2023-05-07T01:32:32;26.10;;;20.13;;
14883;SDS011;7534;50.762;7.000;2023-05-07T01:35:06;24.17;;;19.00;;
14883;SDS011;7534;50.762;7.000;2023-05-07T01:37:37;25.17;;;18.97;;
14883;SDS011;7534;50.762;7.000;2023-05-07T01:40:05;25.03;;;18.83;;
14883;SDS011;7534;50.762;7.000;2023-05-07T01:42:32;20.20;;;15.80;;
14883;SDS011;7534;50.762;7.000;2023-05-07T01:44:58;18.87;;;13.50;;
14883;SDS011;7534;50.762;7.000;2023-05-07T01:47:24;14.47;;;11.90;;
14883;SDS011;7534;50.762;7.000;2023-05-07T01:49:51;16.17;;;11.93;;
14883;SDS011;7534;50.762;7.000;2023-05-07T01:52:17;13.20;;;11.67;;
14883;SDS011;7534;50.762;7.000;2023-05-07T01:54:44;14.20;;;11.37;;
14883;SDS011;7534;50.762;7.000;2023-05-07T01:57:10;13.37;;;10.53;;
14883;SDS011;7534;50.762;7.000;2023-05-07T01:59:36;12.13;;;10.90;;
14883;SDS011;7534;50.762;7.000;2023-05-07T02:02:01;11.50;;;10.30;;
14883;SDS011;7534;50.762;7.000;2023-05-07T02:04:28;13.07;;;10.33;;
14883;SDS011;7534;50.762;7.000;2023-05-07T02:06:54;13.23;;;10.67;;
14883;SDS011;7534;50.762;7.000;2023-05-07T02:09:21;10.70;;;9.63;;
14883;SDS011;7534;50.762;7.000;2023-05-07T02:11:48;12.37;;;9.33;;
14883;SDS011;7534;50.762;7.000;2023-05-07T02:14:13;10.47;;;9.47;;
14883;SDS011;7534;50.762;7.000;2023-05-07T02:16:40;10.57;;;9.47;;
14883;SDS011;7534;50.762;7.000;2023-05-07T02:19:12;8.67;;;7.87;;
14883;SDS011;7534;50.762;7.000;2023-05-07T02:21:38;11.80;;;9.47;;
14883;SDS011;7534;50.762;7.000;2023-05-07T02:24:04;10.20;;;8.97;;
14883;SDS011;7534;50.762;7.000;2023-05-07T02:26:30;10.40;;;9.30;;
14883;SDS011;7534;50.762;7.000;2023-05-07T02:28:56;10.13;;;8.37;;
14883;SDS011;7534;50.762;7.000;2023-05-07T02:31:21;9.50;;;8.60;;
14883;SDS011;7534;50.762;7.000;2023-05-07T02:33:47;9.53;;;8.63;;
14883;SDS011;7534;50.762;7.000;2023-05-07T02:36:12;9.40;;;8.50;;
14883;SDS011;7534;50.762;7.000;2023-05-07T02:38:38;9.70;;;8.70;;
14883;SDS011;7534;50.762;7.000;2023-05-07T02:41:04;9.27;;;8.40;;
14883;SDS011;7534;50.762;7.000;2023-05-07T02:43:30;10.10;;;8.77;;
14883;SDS011;7534;50.762;7.000;2023-05-07T02:46:05;9.50;;;8.60;;
14883;SDS011;7534;50.762;7.000;2023-05-07T02:48:34;10.17;;;8.43;;
14883;SDS011;7534;50.762;7.000;2023-05-07T02:51:00;9.00;;;8.07;;
14883;SDS011;7534;50.762;7.000;2023-05-07T02:53:27;8.47;;;7.67;;
14883;SDS011;7534;50.762;7.000;2023-05-07T02:55:55;10.03;;;8.03;;
14883;SDS011;7534;50.762;7.000;2023-05-07T02:58:27;8.40;;;7.70;;
14883;SDS011;7534;50.762;7.000;2023-05-07T03:00:53;8.90;;;8.10;;
14883;SDS011;7534;50.762;7.000;2023-05-07T03:03:22;9.97;;;8.57;;
14883;SDS011;7534;50.762;7.000;2023-05-07T03:05:48;9.00;;;7.93;;
14883;SDS011;7534;50.762;7.000;2023-05-07T03:08:13;9.57;;;8.37;;
14883;SDS011;7534;50.762;7.000;2023-05-07T03:10:39;8.90;;;8.10;;
14883;SDS011;7534;50.762;7.000;2023-05-07T03:13:05;9.07;;;8.13;;
14883;SDS011;7534;50.762;7.000;2023-05-07T03:15:30;8.83;;;8.00;;
14883;SDS011;7534;50.762;7.000;2023-05-07T03:17:56;8.50;;;7.70;;
14883;SDS011;7534;50.762;7.000;2023-05-07T03:20:22;8.47;;;7.60;;
14883;SDS011;7534;50.762;7.000;2023-05-07T03:22:47;9.03;;;8.23;;
14883;SDS011;7534;50.762;7.000;2023-05-07T03:25:13;8.83;;;8.00;;
14883;SDS011;7534;50.762;7.000;2023-05-07T03:27:39;8.40;;;7.60;;
14883;SDS011;7534;50.762;7.000;2023-05-07T03:30:07;8.50;;;7.70;;
14883;SDS011;7534;50.762;7.000;2023-05-07T03:32:33;8.17;;;7.37;;
14883;SDS011;7534;50.762;7.000;2023-05-07T03:35:00;8.37;;;7.20;;
14883;SDS011;7534;50.762;7.000;2023-05-07T03:37:27;8.47;;;7.67;;
14883;SDS011;7534;50.762;7.000;2023-05-07T03:39:52;8.80;;;8.00;;
14883;SDS011;7534;50.762;7.000;2023-05-07T03:42:18;9.53;;;8.10;;
14883;SDS011;7534;50.762;7.000;2023-05-07T03:44:44;9.00;;;8.20;;
14883;SDS011;7534;50.762;7.000;2023-05-07T03:47:10;8.33;;;7.63;;
14883;SDS011;7534;50.762;7.000;2023-05-07T03:49:36;8.87;;;8.07;;
14883;SDS011;7534;50.762;7.000;2023-05-07T03:52:02;8.77;;;7.33;;
14883;SDS011;7534;50.762;7.000;2023-05-07T03:54:27;8.23;;;7.40;;
14883;SDS011;7534;50.762;7.000;2023-05-07T03:56:53;8.17;;;7.47;;
14883;SDS011;7534;50.762;7.000;2023-05-07T03:59:19;9.20;;;8.20;;
14883;SDS011;7534;50.762;7.000;2023-05-07T04:01:45;7.70;;;6.93;;
14883;SDS011;7534;50.762;7.000;2023-05-07T04:04:10;9.27;;;8.37;;
14883;SDS011;7534;50.762;7.000;2023-05-07T04:06:36;9.27;;;8.37;;
14883;SDS011;7534;50.762;7.000;2023-05-07T04:09:02;10.27;;;8.63;;
14883;SDS011;7534;50.762;7.000;2023-05-07T04:11:28;8.80;;;7.90;;
14883;SDS011;7534;50.762;7.000;2023-05-07T04:13:54;8.97;;;8.13;;
14883;SDS011;7534;50.762;7.000;2023-05-07T04:16:20;9.37;;;8.40;;
14883;SDS011;7534;50.762;7.000;2023-05-07T04:18:45;8.93;;;8.07;;
14883;SDS011;7534;50.762;7.000;2023-05-07T04:21:18;10.17;;;9.17;;
14883;SDS011;7534;50.762;7.000;2023-05-07T04:23:46;11.73;;;9.07;;
14883;SDS011;7534;50.762;7.000;2023-05-07T04:26:13;10.60;;;8.97;;
14883;SDS011;7534;50.762;7.000;2023-05-07T04:28:39;10.20;;;7.97;;
14883;SDS011;7534;50.762;7.000;2023-05-07T04:31:05;11.10;;;10.00;;
14883;SDS011;7534;50.762;7.000;2023-05-07T04:33:31;10.70;;;8.73;;
14883;SDS011;7534;50.762;7.000;2023-05-07T04:35:58;10.80;;;9.20;;
14883;SDS011;7534;50.762;7.000;2023-05-07T04:38:29;10.30;;;9.30;;
14883;SDS011;7534;50.762;7.000;2023-05-07T04:40:56;10.33;;;9.23;;
14883;SDS011;7534;50.762;7.000;2023-05-07T04:43:27;10.10;;;9.10;;
14883;SDS011;7534;50.762;7.000;2023-05-07T04:45:53;11.50;;;9.93;;
14883;SDS011;7534;50.762;7.000;2023-05-07T04:48:18;12.10;;;10.80;;
14883;SDS011;7534;50.762;7.000;2023-05-07T04:50:48;11.37;;;10.30;;
14883;SDS011;7534;50.762;7.000;2023-05-07T04:53:15;11.70;;;10.50;;
14883;SDS011;7534;50.762;7.000;2023-05-07T04:55:41;14.50;;;11.33;;
14883;SDS011;7534;50.762;7.000;2023-05-07T04:58:07;13.23;;;10.80;;
14883;SDS011;7534;50.762;7.000;2023-05-07T05:00:33;12.60;;;11.07;;
14883;SDS011;7534;50.762;7.000;2023-05-07T05:02:59;13.10;;;11.47;;
14883;SDS011;7534;50.762;7.000;2023-05-07T05:05:25;12.43;;;11.13;;
14883;SDS011;7534;50.762;7.000;2023-05-07T05:07:51;15.77;;;11.60;;
14883;SDS011;7534;50.762;7.000;2023-05-07T05:10:17;13.07;;;11.80;;
14883;SDS011;7534;50.762;7.000;2023-05-07T05:12:43;13.77;;;12.17;;
14883;SDS011;7534;50.762;7.000;2023-05-07T05:15:10;13.67;;;12.23;;
14883;SDS011;7534;50.762;7.000;2023-05-07T05:17:37;12.73;;;11.37;;
14883;SDS011;7534;50.762;7.000;2023-05-07T05:20:04;12.50;;;11.30;;
14883;SDS011;7534;50.762;7.000;2023-05-07T05:22:31;12.80;;;11.60;;
14883;SDS011;7534;50.762;7.000;2023-05-07T05:24:57;12.50;;;11.20;;
14883;SDS011;7534;50.762;7.000;2023-05-07T05:27:23;13.40;;;11.97;;
14883;SDS011;7534;50.762;7.000;2023-05-07T05:29:49;11.87;;;10.77;;
14883;SDS011;7534;50.762;7.000;2023-05-07T05:32:15;11.25;;;10.25;;
14883;SDS011;7534;50.762;7.000;2023-05-07T05:34:41;11.68;;;10.48;;
14883;SDS011;7534;50.762;7.000;2023-05-07T05:37:06;11.03;;;9.67;;
14883;SDS011;7534;50.762;7.000;2023-05-07T05:39:32;10.05;;;9.15;;
14883;SDS011;7534;50.762;7.000;2023-05-07T05:41:58;10.40;;;9.48;;
14883;SDS011;7534;50.762;7.000;2023-05-07T05:44:24;10.07;;;9.18;;
14883;SDS011;7534;50.762;7.000;2023-05-07T05:46:50;9.15;;;8.25;;
14883;SDS011;7534;50.762;7.000;2023-05-07T05:49:16;10.27;;;9.13;;
14883;SDS011;7534;50.762;7.000;2023-05-07T05:51:42;10.48;;;9.40;;
14883;SDS011;7534;50.762;7.000;2023-05-07T05:54:08;9.50;;;8.70;;
14883;SDS011;7534;50.762;7.000;2023-05-07T05:56:34;9.65;;;8.85;;
14883;SDS011;7534;50.762;7.000;2023-05-07T05:59:10;9.25;;;8.43;;
14883;SDS011;7534;50.762;7.000;2023-05-07T06:01:43;9.55;;;8.55;;
14883;SDS011;7534;50.762;7.000;2023-05-07T06:04:08;10.57;;;9.52;;
14883;SDS011;7534;50.762;7.000;2023-05-07T06:06:34;9.40;;;8.60;;
14883;SDS011;7534;50.762;7.000;2023-05-07T06:09:01;9.02;;;8.15;;
14883;SDS011;7534;50.762;7.000;2023-05-07T06:11:27;8.15;;;7.35;;
14883;SDS011;7534;50.762;7.000;2023-05-07T06:13:53;7.30;;;6.60;;
14883;SDS011;7534;50.762;7.000;2023-05-07T06:16:19;6.80;;;6.20;;
14883;SDS011;7534;50.762;7.000;2023-05-07T06:18:45;7.03;;;6.32;;
14883;SDS011;7534;50.762;7.000;2023-05-07T06:21:11;6.85;;;5.45;;
14883;SDS011;7534;50.762;7.000;2023-05-07T06:23:38;5.00;;;4.60;;
14883;SDS011;7534;50.762;7.000;2023-05-07T06:26:06;5.20;;;4.53;;
14883;SDS011;7534;50.762;7.000;2023-05-07T06:28:32;5.25;;;4.10;;
14883;SDS011;7534;50.762;7.000;2023-05-07T06:31:17;4.13;;;3.72;;
14883;SDS011;7534;50.762;7.000;2023-05-07T06:33:47;4.00;;;3.70;;
14883;SDS011;7534;50.762;7.000;2023-05-07T06:36:14;3.92;;;3.63;;
14883;SDS011;7534;50.762;7.000;2023-05-07T06:38:40;4.05;;;3.65;;
14883;SDS011;7534;50.762;7.000;2023-05-07T06:41:06;3.92;;;3.60;;
14883;SDS011;7534;50.762;7.000;2023-05-07T06:43:32;3.85;;;3.55;;
14883;SDS011;7534;50.762;7.000;2023-05-07T06:45:58;4.35;;;3.70;;
14883;SDS011;7534;50.762;7.000;2023-05-07T06:48:24;3.70;;;3.40;;
14883;SDS011;7534;50.762;7.000;2023-05-07T06:50:49;3.75;;;3.38;;
14883;SDS011;7534;50.762;7.000;2023-05-07T06:53:34;3.80;;;3.50;;
14883;SDS011;7534;50.762;7.000;2023-05-07T06:56:02;3.80;;;3.05;;
14883;SDS011;7534;50.762;7.000;2023-05-07T06:58:28;3.40;;;3.10;;
14883;SDS011;7534;50.762;7.000;2023-05-07T07:00:55;3.85;;;3.45;;
14883;SDS011;7534;50.762;7.000;2023-05-07T07:03:20;3.70;;;3.40;;
14883;SDS011;7534;50.762;7.000;2023-05-07T07:05:46;3.75;;;3.05;;
14883;SDS011;7534;50.762;7.000;2023-05-07T07:08:12;3.63;;;3.30;;
14883;SDS011;7534;50.762;7.000;2023-05-07T07:10:38;3.42;;;3.13;;
14883;SDS011;7534;50.762;7.000;2023-05-07T07:13:03;3.45;;;3.15;;
14883;SDS011;7534;50.762;7.000;2023-05-07T07:15:29;4.05;;;3.60;;
14883;SDS011;7534;50.762;7.000;2023-05-07T07:17:55;3.58;;;3.28;;
14883;SDS011;7534;50.762;7.000;2023-05-07T07:20:20;3.25;;;3.03;;
14883;SDS011;7534;50.762;7.000;2023-05-07T07:22:46;3.30;;;3.00;;
14883;SDS011;7534;50.762;7.000;2023-05-07T07:25:12;3.42;;;3.03;;
14883;SDS011;7534;50.762;7.000;2023-05-07T07:27:38;3.15;;;2.88;;
14883;SDS011;7534;50.762;7.000;2023-05-07T07:30:05;4.82;;;2.67;;
14883;SDS011;7534;50.762;7.000;2023-05-07T07:32:31;3.92;;;2.67;;
14883;SDS011;7534;50.762;7.000;2023-05-07T07:34:58;3.65;;;2.80;;
14883;SDS011;7534;50.762;7.000;2023-05-07T07:37:24;3.10;;;2.80;;
14883;SDS011;7534;50.762;7.000;2023-05-07T07:39:50;2.80;;;2.60;;
14883;SDS011;7534;50.762;7.000;2023-05-07T07:42:16;3.17;;;2.90;;
14883;SDS011;7534;50.762;7.000;2023-05-07T07:44:43;3.58;;;3.28;;
14883;SDS011;7534;50.762;7.000;2023-05-07T07:47:09;2.97;;;2.65;;
14883;SDS011;7534;50.762;7.000;2023-05-07T07:49:35;3.95;;;3.05;;
14883;SDS011;7534;50.762;7.000;2023-05-07T07:52:01;4.22;;;2.60;;
14883;SDS011;7534;50.762;7.000;2023-05-07T07:54:27;2.58;;;2.38;;
14883;SDS011;7534;50.762;7.000;2023-05-07T07:56:53;3.70;;;2.92;;
14883;SDS011;7534;50.762;7.000;2023-05-07T07:59:19;2.88;;;2.60;;
14883;SDS011;7534;50.762;7.000;2023-05-07T08:01:45;2.53;;;2.33;;
14883;SDS011;7534;50.762;7.000;2023-05-07T08:04:13;2.83;;;2.63;;
14883;SDS011;7534;50.762;7.000;2023-05-07T08:06:38;2.88;;;2.58;;
14883;SDS011;7534;50.762;7.000;2023-05-07T08:09:04;3.97;;;2.83;;
14883;SDS011;7534;50.762;7.000;2023-05-07T08:11:30;3.25;;;2.38;;
14883;SDS011;7534;50.762;7.000;2023-05-07T08:13:56;2.47;;;2.28;;
14883;SDS011;7534;50.762;7.000;2023-05-07T08:16:22;2.58;;;2.38;;
14883;SDS011;7534;50.762;7.000;2023-05-07T08:18:47;2.88;;;2.25;;
14883;SDS011;7534;50.762;7.000;2023-05-07T08:21:13;2.38;;;2.15;;
14883;SDS011;7534;50.762;7.000;2023-05-07T08:23:39;3.33;;;2.50;;
14883;SDS011;7534;50.762;7.000;2023-05-07T08:26:04;4.70;;;2.70;;
14883;SDS011;7534;50.762;7.000;2023-05-07T08:28:30;3.30;;;2.30;;
14883;SDS011;7534;50.762;7.000;2023-05-07T08:30:56;2.72;;;2.40;;
14883;SDS011;7534;50.762;7.000;2023-05-07T08:33:24;2.75;;;2.30;;
14883;SDS011;7534;50.762;7.000;2023-05-07T08:35:50;3.55;;;2.30;;
14883;SDS011;7534;50.762;7.000;2023-05-07T08:38:16;3.35;;;2.10;;
14883;SDS011;7534;50.762;7.000;2023-05-07T08:40:41;2.35;;;2.15;;
14883;SDS011;7534;50.762;7.000;2023-05-07T08:43:07;3.03;;;2.38;;
14883;SDS011;7534;50.762;7.000;2023-05-07T08:45:37;2.45;;;2.25;;
14883;SDS011;7534;50.762;7.000;2023-05-07T08:48:08;2.65;;;2.35;;
14883;SDS011;7534;50.762;7.000;2023-05-07T08:50:40;2.40;;;2.20;;
14883;SDS011;7534;50.762;7.000;2023-05-07T08:53:06;2.75;;;2.40;;
14883;SDS011;7534;50.762;7.000;2023-05-07T08:55:31;3.50;;;2.65;;
14883;SDS011;7534;50.762;7.000;2023-05-07T08:57:58;2.38;;;2.17;;
14883;SDS011;7534;50.762;7.000;2023-05-07T09:00:24;2.30;;;2.17;;
14883;SDS011;7534;50.762;7.000;2023-05-07T09:02:51;2.20;;;2.10;;
14883;SDS011;7534;50.762;7.000;2023-05-07T09:05:18;2.75;;;2.22;;
14883;SDS011;7534;50.762;7.000;2023-05-07T09:07:45;2.95;;;2.05;;
14883;SDS011;7534;50.762;7.000;2023-05-07T09:10:11;2.25;;;2.05;;
14883;SDS011;7534;50.762;7.000;2023-05-07T09:12:38;2.90;;;2.47;;
14883;SDS011;7534;50.762;7.000;2023-05-07T09:15:05;2.50;;;2.00;;
14883;SDS011;7534;50.762;7.000;2023-05-07T09:17:31;2.38;;;2.17;;
14883;SDS011;7534;50.762;7.000;2023-05-07T09:20:04;2.65;;;2.28;;
14883;SDS011;7534;50.762;7.000;2023-05-07T09:22:32;2.60;;;1.92;;
14883;SDS011;7534;50.762;7.000;2023-05-07T09:24:58;1.90;;;1.80;;
14883;SDS011;7534;50.762;7.000;2023-05-07T09:27:24;2.47;;;2.22;;
14883;SDS011;7534;50.762;7.000;2023-05-07T09:29:51;2.53;;;2.33;;
14883;SDS011;7534;50.762;7.000;2023-05-07T09:32:17;2.30;;;2.05;;
14883;SDS011;7534;50.762;7.000;2023-05-07T09:34:42;2.35;;;2.10;;
14883;SDS011;7534;50.762;7.000;2023-05-07T09:37:08;2.28;;;2.08;;
14883;SDS011;7534;50.762;7.000;2023-05-07T09:42:08;3.33;;;2.17;;
14883;SDS011;7534;50.762;7.000;2023-05-07T09:44:34;2.58;;;2.17;;
14883;SDS011;7534;50.762;7.000;2023-05-07T09:47:01;2.20;;;2.00;;
14883;SDS011;7534;50.762;7.000;2023-05-07T09:49:33;2.30;;;2.05;;
14883;SDS011;7534;50.762;7.000;2023-05-07T09:52:02;3.30;;;1.92;;
14883;SDS011;7534;50.762;7.000;2023-05-07T09:54:32;6.05;;;2.75;;
14883;SDS011;7534;50.762;7.000;2023-05-07T09:56:59;2.10;;;2.00;;
14883;SDS011;7534;50.762;7.000;2023-05-07T09:59:31;2.80;;;2.00;;
14883;SDS011;7534;50.762;7.000;2023-05-07T10:01:58;4.18;;;2.60;;
14883;SDS011;7534;50.762;7.000;2023-05-07T10:04:26;2.05;;;1.95;;
14883;SDS011;7534;50.762;7.000;2023-05-07T10:06:52;4.30;;;2.13;;
14883;SDS011;7534;50.762;7.000;2023-05-07T10:09:20;2.38;;;2.17;;
14883;SDS011;7534;50.762;7.000;2023-05-07T10:11:48;2.50;;;2.30;;
14883;SDS011;7534;50.762;7.000;2023-05-07T10:14:15;2.35;;;2.15;;
14883;SDS011;7534;50.762;7.000;2023-05-07T10:16:41;3.33;;;2.20;;
14883;SDS011;7534;50.762;7.000;2023-05-07T10:19:08;3.38;;;2.17;;
14883;SDS011;7534;50.762;7.000;2023-05-07T10:21:37;2.40;;;2.20;;
14883;SDS011;7534;50.762;7.000;2023-05-07T10:24:06;2.17;;;2.03;;
14883;SDS011;7534;50.762;7.000;2023-05-07T10:26:40;2.20;;;2.00;;
14883;SDS011;7534;50.762;7.000;2023-05-07T10:29:53;3.00;;;2.10;;
14883;SDS011;7534;50.762;7.000;2023-05-07T10:34:44;2.38;;;2.17;;
14883;SDS011;7534;50.762;7.000;2023-05-07T10:37:13;2.45;;;2.25;;
14883;SDS011;7534;50.762;7.000;2023-05-07T10:39:40;4.03;;;2.20;;
14883;SDS011;7534;50.762;7.000;2023-05-07T10:42:10;2.38;;;2.17;;
14883;SDS011;7534;50.762;7.000;2023-05-07T10:44:38;2.05;;;1.95;;
14883;SDS011;7534;50.762;7.000;2023-05-07T10:47:05;3.10;;;2.22;;
14883;SDS011;7534;50.762;7.000;2023-05-07T10:49:34;3.28;;;2.35;;
14883;SDS011;7534;50.762;7.000;2023-05-07T10:52:10;2.60;;;2.40;;
14883;SDS011;7534;50.762;7.000;2023-05-07T10:54:44;3.75;;;2.40;;
14883;SDS011;7534;50.762;7.000;2023-05-07T10:59:55;2.80;;;2.30;;
14883;SDS011;7534;50.762;7.000;2023-05-07T11:02:21;3.05;;;2.38;;
14883;SDS011;7534;50.762;7.000;2023-05-07T11:08:21;3.17;;;2.33;;
14883;SDS011;7534;50.762;7.000;2023-05-07T11:13:41;2.58;;;2.38;;
14883;SDS011;7534;50.762;7.000;2023-05-07T11:16:19;2.67;;;2.47;;
14883;SDS011;7534;50.762;7.000;2023-05-07T11:21:31;2.53;;;2.40;;
14883;SDS011;7534;50.762;7.000;2023-05-07T11:24:06;2.55;;;2.35;;
14883;SDS011;7534;50.762;7.000;2023-05-07T11:26:49;2.83;;;2.40;;
14883;SDS011;7534;50.762;7.000;2023-05-07T11:29:17;2.50;;;2.35;;
14883;SDS011;7534;50.762;7.000;2023-05-07T11:31:48;2.88;;;2.67;;
14883;SDS011;7534;50.762;7.000;2023-05-07T11:34:20;2.67;;;2.47;;
14883;SDS011;7534;50.762;7.000;2023-05-07T11:36:48;2.85;;;2.35;;
14883;SDS011;7534;50.762;7.000;2023-05-07T11:42:28;2.75;;;2.47;;
14883;SDS011;7534;50.762;7.000;2023-05-07T11:44:57;2.70;;;2.08;;
14883;SDS011;7534;50.762;7.000;2023-05-07T11:47:23;3.92;;;2.47;;
14883;SDS011;7534;50.762;7.000;2023-05-07T11:49:51;3.35;;;2.50;;
14883;SDS011;7534;50.762;7.000;2023-05-07T11:52:19;4.72;;;2.20;;
14883;SDS011;7534;50.762;7.000;2023-05-07T11:54:54;2.42;;;2.20;;
14883;SDS011;7534;50.762;7.000;2023-05-07T11:57:23;3.45;;;2.30;;
14883;SDS011;7534;50.762;7.000;2023-05-07T11:59:53;3.08;;;2.50;;
14883;SDS011;7534;50.762;7.000;2023-05-07T12:02:23;2.60;;;2.20;;
14883;SDS011;7534;50.762;7.000;2023-05-07T12:04:50;2.47;;;2.28;;
14883;SDS011;7534;50.762;7.000;2023-05-07T12:07:17;3.10;;;2.08;;
14883;SDS011;7534;50.762;7.000;2023-05-07T12:09:43;2.38;;;2.10;;
14883;SDS011;7534;50.762;7.000;2023-05-07T12:12:11;2.50;;;2.30;;
14883;SDS011;7534;50.762;7.000;2023-05-07T12:14:38;2.10;;;2.00;;
14883;SDS011;7534;50.762;7.000;2023-05-07T12:17:06;2.50;;;2.30;;
14883;SDS011;7534;50.762;7.000;2023-05-07T12:19:37;2.42;;;2.20;;
14883;SDS011;7534;50.762;7.000;2023-05-07T12:22:05;2.50;;;2.30;;
14883;SDS011;7534;50.762;7.000;2023-05-07T12:24:49;2.60;;;2.30;;
14883;SDS011;7534;50.762;7.000;2023-05-07T12:27:22;2.58;;;2.10;;
14883;SDS011;7534;50.762;7.000;2023-05-07T12:29:48;2.83;;;2.25;;
14883;SDS011;7534;50.762;7.000;2023-05-07T12:32:19;3.35;;;2.40;;
14883;SDS011;7534;50.762;7.000;2023-05-07T12:34:47;3.65;;;2.38;;
14883;SDS011;7534;50.762;7.000;2023-05-07T12:37:16;5.47;;;2.78;;
14883;SDS011;7534;50.762;7.000;2023-05-07T12:39:49;3.45;;;2.70;;
14883;SDS011;7534;50.762;7.000;2023-05-07T12:42:32;3.17;;;2.88;;
14883;SDS011;7534;50.762;7.000;2023-05-07T12:45:07;3.33;;;2.90;;
14883;SDS011;7534;50.762;7.000;2023-05-07T12:47:37;4.68;;;3.00;;
14883;SDS011;7534;50.762;7.000;2023-05-07T12:50:05;4.85;;;3.28;;
14883;SDS011;7534;50.762;7.000;2023-05-07T12:52:31;3.92;;;3.10;;
14883;SDS011;7534;50.762;7.000;2023-05-07T12:55:04;3.58;;;3.28;;
14883;SDS011;7534;50.762;7.000;2023-05-07T12:57:37;4.82;;;3.80;;
14883;SDS011;7534;50.762;7.000;2023-05-07T13:00:06;4.18;;;3.78;;
14883;SDS011;7534;50.762;7.000;2023-05-07T13:02:33;4.57;;;3.75;;
14883;SDS011;7534;50.762;7.000;2023-05-07T13:05:02;5.80;;;3.72;;
14883;SDS011;7534;50.762;7.000;2023-05-07T13:07:28;4.07;;;3.78;;
14883;SDS011;7534;50.762;7.000;2023-05-07T13:09:53;3.97;;;3.67;;
14883;SDS011;7534;50.762;7.000;2023-05-07T13:12:21;4.65;;;4.00;;
14883;SDS011;7534;50.762;7.000;2023-05-07T13:14:47;4.72;;;4.00;;
14883;SDS011;7534;50.762;7.000;2023-05-07T13:17:13;4.22;;;3.92;;
14883;SDS011;7534;50.762;7.000;2023-05-07T13:19:38;6.47;;;4.38;;
14883;SDS011;7534;50.762;7.000;2023-05-07T13:22:04;6.72;;;4.15;;
14883;SDS011;7534;50.762;7.000;2023-05-07T13:24:30;4.25;;;3.83;;
14883;SDS011;7534;50.762;7.000;2023-05-07T13:26:56;4.25;;;3.85;;
14883;SDS011;7534;50.762;7.000;2023-05-07T13:29:21;4.38;;;3.97;;
14883;SDS011;7534;50.762;7.000;2023-05-07T13:31:53;4.43;;;3.95;;
14883;SDS011;7534;50.762;7.000;2023-05-07T13:34:20;4.13;;;3.72;;
14883;SDS011;7534;50.762;7.000;2023-05-07T13:36:45;4.28;;;3.88;;
14883;SDS011;7534;50.762;7.000;2023-05-07T13:39:11;3.90;;;3.60;;
14883;SDS011;7534;50.762;7.000;2023-05-07T13:41:37;3.60;;;3.30;;
14883;SDS011;7534;50.762;7.000;2023-05-07T13:44:03;5.90;;;3.33;;
14883;SDS011;7534;50.762;7.000;2023-05-07T13:46:30;3.55;;;3.20;;
14883;SDS011;7534;50.762;7.000;2023-05-07T13:48:56;4.40;;;3.13;;
14883;SDS011;7534;50.762;7.000;2023-05-07T13:51:22;3.17;;;2.90;;
14883;SDS011;7534;50.762;7.000;2023-05-07T13:53:48;3.90;;;3.15;;
14883;SDS011;7534;50.762;7.000;2023-05-07T13:56:14;3.28;;;2.97;;
14883;SDS011;7534;50.762;7.000;2023-05-07T13:58:40;4.15;;;3.20;;
14883;SDS011;7534;50.762;7.000;2023-05-07T14:01:06;3.40;;;3.20;;
14883;SDS011;7534;50.762;7.000;2023-05-07T14:03:32;2.90;;;2.60;;
14883;SDS011;7534;50.762;7.000;2023-05-07T14:05:58;2.63;;;2.30;;
14883;SDS011;7534;50.762;7.000;2023-05-07T14:08:26;3.17;;;2.38;;
14883;SDS011;7534;50.762;7.000;2023-05-07T14:10:54;3.33;;;2.50;;
14883;SDS011;7534;50.762;7.000;2023-05-07T14:13:21;3.05;;;2.40;;
14883;SDS011;7534;50.762;7.000;2023-05-07T14:15:47;4.28;;;2.75;;
14883;SDS011;7534;50.762;7.000;2023-05-07T14:18:14;2.70;;;2.50;;
14883;SDS011;7534;50.762;7.000;2023-05-07T14:20:41;3.97;;;2.60;;
14883;SDS011;7534;50.762;7.000;2023-05-07T14:23:11;2.90;;;2.53;;
14883;SDS011;7534;50.762;7.000;2023-05-07T14:25:37;4.13;;;2.60;;
14883;SDS011;7534;50.762;7.000;2023-05-07T14:28:04;2.75;;;2.55;;
14883;SDS011;7534;50.762;7.000;2023-05-07T14:30:30;3.35;;;2.40;;
14883;SDS011;7534;50.762;7.000;2023-05-07T14:32:56;2.60;;;2.40;;
14883;SDS011;7534;50.762;7.000;2023-05-07T14:35:22;2.30;;;2.10;;
14883;SDS011;7534;50.762;7.000;2023-05-07T14:37:48;2.47;;;2.28;;
14883;SDS011;7534;50.762;7.000;2023-05-07T14:40:14;2.30;;;2.20;;
14883;SDS011;7534;50.762;7.000;2023-05-07T14:42:40;3.15;;;2.40;;
14883;SDS011;7534;50.762;7.000;2023-05-07T14:45:05;3.63;;;2.50;;
14883;SDS011;7534;50.762;7.000;2023-05-07T14:47:32;3.42;;;2.42;;
14883;SDS011;7534;50.762;7.000;2023-05-07T14:49:58;4.40;;;2.50;;
14883;SDS011;7534;50.762;7.000;2023-05-07T14:52:25;2.90;;;2.60;;
14883;SDS011;7534;50.762;7.000;2023-05-07T14:54:51;3.38;;;2.40;;
14883;SDS011;7534;50.762;7.000;2023-05-07T14:57:17;4.47;;;2.45;;
14883;SDS011;7534;50.762;7.000;2023-05-07T14:59:44;3.67;;;2.35;;
14883;SDS011;7534;50.762;7.000;2023-05-07T15:02:11;2.70;;;2.50;;
14883;SDS011;7534;50.762;7.000;2023-05-07T15:04:38;2.95;;;2.75;;
14883;SDS011;7534;50.762;7.000;2023-05-07T15:07:14;3.22;;;2.92;;
14883;SDS011;7534;50.762;7.000;2023-05-07T15:09:43;4.45;;;3.15;;
14883;SDS011;7534;50.762;7.000;2023-05-07T15:12:10;4.13;;;3.15;;
14883;SDS011;7534;50.762;7.000;2023-05-07T15:14:37;3.90;;;3.20;;
14883;SDS011;7534;50.762;7.000;2023-05-07T15:17:04;4.15;;;3.20;;
14883;SDS011;7534;50.762;7.000;2023-05-07T15:19:30;4.00;;;2.90;;